sensor_id;sensor_type;location;lat;lon;timestamp;P1;durP1;ratioP1;P2;durP2;ratioP2
44328;SDS011;30039;51.462;6.892;2023-02-13T00:01:51;15.55;;;8.48;;
44328;SDS011;30039;51.462;6.892;2023-02-13T00:04:37;18.35;;;8.68;;
44328;SDS011;30039;51.462;6.892;2023-02-13T00:07:23;18.80;;;9.32;;
44328;SDS011;30039;51.462;6.892;2023-02-13T00:10:09;16.63;;;8.98;;
44328;SDS011;30039;51.462;6.892;2023-02-13T00:12:55;21.20;;;9.90;;
44328;SDS011;30039;51.462;6.892;2023-02-13T00:15:40;20.10;;;9.43;;
44328;SDS011;30039;51.462;6.892;2023-02-13T00:18:26;18.25;;;10.25;;
44328;SDS011;30039;51.462;6.892;2023-02-13T00:21:12;19.30;;;10.32;;
44328;SDS011;30039;51.462;6.892;2023-02-13T00:23:58;18.20;;;9.95;;
44328;SDS011;30039;51.462;6.892;2023-02-13T00:26:43;20.20;;;10.88;;
44328;SDS011;30039;51.462;6.892;2023-02-13T00:29:29;18.35;;;10.70;;
44328;SDS011;30039;51.462;6.892;2023-02-13T00:32:16;18.65;;;10.65;;
44328;SDS011;30039;51.462;6.892;2023-02-13T00:35:01;19.13;;;10.73;;
44328;SDS011;30039;51.462;6.892;2023-02-13T00:37:47;19.52;;;10.88;;
44328;SDS011;30039;51.462;6.892;2023-02-13T00:40:33;23.70;;;11.50;;
44328;SDS011;30039;51.462;6.892;2023-02-13T00:43:18;19.58;;;10.68;;
44328;SDS011;30039;51.462;6.892;2023-02-13T00:46:05;19.77;;;11.45;;
44328;SDS011;30039;51.462;6.892;2023-02-13T00:48:51;19.75;;;10.70;;
44328;SDS011;30039;51.462;6.892;2023-02-13T00:51:36;18.48;;;10.77;;
44328;SDS011;30039;51.462;6.892;2023-02-13T00:54:22;17.02;;;8.98;;
44328;SDS011;30039;51.462;6.892;2023-02-13T00:57:07;17.80;;;9.52;;
44328;SDS011;30039;51.462;6.892;2023-02-13T00:59:53;21.27;;;10.18;;
44328;SDS011;30039;51.462;6.892;2023-02-13T01:02:39;16.65;;;9.07;;
44328;SDS011;30039;51.462;6.892;2023-02-13T01:05:24;15.70;;;9.02;;
44328;SDS011;30039;51.462;6.892;2023-02-13T01:08:12;14.55;;;8.40;;
44328;SDS011;30039;51.462;6.892;2023-02-13T01:11:00;14.52;;;7.85;;
44328;SDS011;30039;51.462;6.892;2023-02-13T01:13:46;12.65;;;7.03;;
44328;SDS011;30039;51.462;6.892;2023-02-13T01:16:32;10.95;;;6.80;;
44328;SDS011;30039;51.462;6.892;2023-02-13T01:19:17;11.55;;;6.35;;
44328;SDS011;30039;51.462;6.892;2023-02-13T01:22:03;12.57;;;7.53;;
44328;SDS011;30039;51.462;6.892;2023-02-13T01:24:49;11.65;;;6.07;;
44328;SDS011;30039;51.462;6.892;2023-02-13T01:27:34;11.25;;;6.22;;
44328;SDS011;30039;51.462;6.892;2023-02-13T01:30:20;10.57;;;6.10;;
44328;SDS011;30039;51.462;6.892;2023-02-13T01:33:06;11.05;;;6.00;;
44328;SDS011;30039;51.462;6.892;2023-02-13T01:35:52;10.70;;;7.00;;
44328;SDS011;30039;51.462;6.892;2023-02-13T01:38:37;9.60;;;6.15;;
44328;SDS011;30039;51.462;6.892;2023-02-13T01:41:24;9.35;;;6.00;;
44328;SDS011;30039;51.462;6.892;2023-02-13T01:50:21;10.23;;;5.50;;
44328;SDS011;30039;51.462;6.892;2023-02-13T01:53:13;11.10;;;5.65;;
44328;SDS011;30039;51.462;6.892;2023-02-13T01:56:09;10.30;;;5.50;;
44328;SDS011;30039;51.462;6.892;2023-02-13T01:58:58;10.70;;;6.13;;
44328;SDS011;30039;51.462;6.892;2023-02-13T02:01:45;10.88;;;5.63;;
44328;SDS011;30039;51.462;6.892;2023-02-13T02:04:32;8.93;;;5.60;;
44328;SDS011;30039;51.462;6.892;2023-02-13T02:07:25;10.60;;;5.70;;
44328;SDS011;30039;51.462;6.892;2023-02-13T02:10:13;10.80;;;5.63;;
44328;SDS011;30039;51.462;6.892;2023-02-13T02:13:11;11.18;;;5.15;;
44328;SDS011;30039;51.462;6.892;2023-02-13T02:15:57;7.93;;;5.05;;
44328;SDS011;30039;51.462;6.892;2023-02-13T02:18:43;9.25;;;5.70;;
44328;SDS011;30039;51.462;6.892;2023-02-13T02:21:50;10.63;;;6.18;;
44328;SDS011;30039;51.462;6.892;2023-02-13T02:28:37;12.30;;;6.75;;
44328;SDS011;30039;51.462;6.892;2023-02-13T02:40:08;11.30;;;6.00;;
44328;SDS011;30039;51.462;6.892;2023-02-13T02:48:40;8.68;;;5.57;;
44328;SDS011;30039;51.462;6.892;2023-02-13T02:57:47;11.38;;;5.20;;
44328;SDS011;30039;51.462;6.892;2023-02-13T03:00:53;11.43;;;5.72;;
44328;SDS011;30039;51.462;6.892;2023-02-13T03:03:59;9.60;;;5.47;;
44328;SDS011;30039;51.462;6.892;2023-02-13T03:07:05;8.23;;;5.07;;
44328;SDS011;30039;51.462;6.892;2023-02-13T03:09:52;8.65;;;5.53;;
44328;SDS011;30039;51.462;6.892;2023-02-13T03:13:08;14.07;;;5.30;;
44328;SDS011;30039;51.462;6.892;2023-02-13T03:16:11;11.07;;;5.38;;
44328;SDS011;30039;51.462;6.892;2023-02-13T03:19:27;9.70;;;5.13;;
44328;SDS011;30039;51.462;6.892;2023-02-13T03:31:57;10.55;;;5.85;;
44328;SDS011;30039;51.462;6.892;2023-02-13T03:34:49;8.80;;;5.07;;
44328;SDS011;30039;51.462;6.892;2023-02-13T03:37:56;9.18;;;5.18;;
44328;SDS011;30039;51.462;6.892;2023-02-13T03:40:49;11.07;;;5.63;;
44328;SDS011;30039;51.462;6.892;2023-02-13T03:46:46;12.43;;;5.68;;
44328;SDS011;30039;51.462;6.892;2023-02-13T03:49:53;9.43;;;4.95;;
44328;SDS011;30039;51.462;6.892;2023-02-13T03:52:52;9.18;;;5.45;;
44328;SDS011;30039;51.462;6.892;2023-02-13T03:55:41;9.23;;;5.22;;
44328;SDS011;30039;51.462;6.892;2023-02-13T03:58:49;8.27;;;4.78;;
44328;SDS011;30039;51.462;6.892;2023-02-13T04:07:36;8.27;;;4.60;;
44328;SDS011;30039;51.462;6.892;2023-02-13T04:10:21;9.40;;;4.82;;
44328;SDS011;30039;51.462;6.892;2023-02-13T04:13:12;8.05;;;4.70;;
44328;SDS011;30039;51.462;6.892;2023-02-13T04:16:06;9.65;;;4.75;;
44328;SDS011;30039;51.462;6.892;2023-02-13T04:18:54;6.72;;;4.07;;
44328;SDS011;30039;51.462;6.892;2023-02-13T04:21:41;8.27;;;4.00;;
44328;SDS011;30039;51.462;6.892;2023-02-13T04:24:27;7.47;;;4.45;;
44328;SDS011;30039;51.462;6.892;2023-02-13T04:27:14;7.85;;;4.20;;
44328;SDS011;30039;51.462;6.892;2023-02-13T04:30:00;8.27;;;3.97;;
44328;SDS011;30039;51.462;6.892;2023-02-13T04:32:46;8.35;;;3.92;;
44328;SDS011;30039;51.462;6.892;2023-02-13T04:35:32;7.13;;;4.57;;
44328;SDS011;30039;51.462;6.892;2023-02-13T04:38:17;8.27;;;4.18;;
44328;SDS011;30039;51.462;6.892;2023-02-13T04:41:03;9.63;;;5.03;;
44328;SDS011;30039;51.462;6.892;2023-02-13T04:43:48;8.32;;;4.60;;
44328;SDS011;30039;51.462;6.892;2023-02-13T04:46:36;9.07;;;4.47;;
44328;SDS011;30039;51.462;6.892;2023-02-13T04:49:22;7.78;;;4.35;;
44328;SDS011;30039;51.462;6.892;2023-02-13T04:52:08;7.57;;;4.10;;
44328;SDS011;30039;51.462;6.892;2023-02-13T04:54:53;8.18;;;4.55;;
44328;SDS011;30039;51.462;6.892;2023-02-13T04:57:39;9.05;;;4.55;;
44328;SDS011;30039;51.462;6.892;2023-02-13T05:00:26;8.25;;;4.68;;
44328;SDS011;30039;51.462;6.892;2023-02-13T05:03:12;9.15;;;4.70;;
44328;SDS011;30039;51.462;6.892;2023-02-13T05:05:57;8.02;;;4.53;;
44328;SDS011;30039;51.462;6.892;2023-02-13T05:08:43;8.18;;;4.50;;
44328;SDS011;30039;51.462;6.892;2023-02-13T05:11:29;9.20;;;4.80;;
44328;SDS011;30039;51.462;6.892;2023-02-13T05:14:14;11.15;;;5.57;;
44328;SDS011;30039;51.462;6.892;2023-02-13T05:17:01;10.50;;;4.97;;
44328;SDS011;30039;51.462;6.892;2023-02-13T05:19:47;10.25;;;5.43;;
44328;SDS011;30039;51.462;6.892;2023-02-13T05:22:35;12.00;;;5.22;;
44328;SDS011;30039;51.462;6.892;2023-02-13T05:25:39;8.57;;;5.03;;
44328;SDS011;30039;51.462;6.892;2023-02-13T05:28:26;10.52;;;4.70;;
44328;SDS011;30039;51.462;6.892;2023-02-13T05:31:31;9.98;;;5.13;;
44328;SDS011;30039;51.462;6.892;2023-02-13T05:34:18;10.80;;;5.40;;
44328;SDS011;30039;51.462;6.892;2023-02-13T05:37:03;10.98;;;5.50;;
44328;SDS011;30039;51.462;6.892;2023-02-13T05:39:49;9.25;;;5.38;;
44328;SDS011;30039;51.462;6.892;2023-02-13T05:42:35;10.65;;;5.15;;
44328;SDS011;30039;51.462;6.892;2023-02-13T05:45:21;11.00;;;5.22;;
44328;SDS011;30039;51.462;6.892;2023-02-13T05:48:07;9.32;;;4.95;;
44328;SDS011;30039;51.462;6.892;2023-02-13T05:50:52;9.95;;;5.28;;
44328;SDS011;30039;51.462;6.892;2023-02-13T05:53:38;9.77;;;5.65;;
44328;SDS011;30039;51.462;6.892;2023-02-13T05:56:24;11.25;;;5.60;;
44328;SDS011;30039;51.462;6.892;2023-02-13T05:59:09;10.70;;;6.22;;
44328;SDS011;30039;51.462;6.892;2023-02-13T06:01:55;11.05;;;6.45;;
44328;SDS011;30039;51.462;6.892;2023-02-13T06:04:40;11.00;;;6.25;;
44328;SDS011;30039;51.462;6.892;2023-02-13T06:07:27;12.75;;;6.05;;
44328;SDS011;30039;51.462;6.892;2023-02-13T06:10:13;12.63;;;6.20;;
44328;SDS011;30039;51.462;6.892;2023-02-13T06:12:58;13.48;;;6.60;;
44328;SDS011;30039;51.462;6.892;2023-02-13T06:15:44;12.57;;;5.65;;
44328;SDS011;30039;51.462;6.892;2023-02-13T06:18:29;11.85;;;5.55;;
44328;SDS011;30039;51.462;6.892;2023-02-13T06:21:15;11.15;;;6.25;;
44328;SDS011;30039;51.462;6.892;2023-02-13T06:24:01;11.13;;;6.28;;
44328;SDS011;30039;51.462;6.892;2023-02-13T06:26:46;11.18;;;6.18;;
44328;SDS011;30039;51.462;6.892;2023-02-13T06:29:32;11.82;;;6.20;;
44328;SDS011;30039;51.462;6.892;2023-02-13T06:32:17;13.65;;;6.00;;
44328;SDS011;30039;51.462;6.892;2023-02-13T06:35:03;10.32;;;5.90;;
44328;SDS011;30039;51.462;6.892;2023-02-13T06:37:49;12.93;;;6.28;;
44328;SDS011;30039;51.462;6.892;2023-02-13T06:40:34;13.00;;;6.15;;
44328;SDS011;30039;51.462;6.892;2023-02-13T06:43:20;12.15;;;6.38;;
44328;SDS011;30039;51.462;6.892;2023-02-13T06:46:06;10.32;;;6.15;;
44328;SDS011;30039;51.462;6.892;2023-02-13T06:48:53;9.25;;;5.88;;
44328;SDS011;30039;51.462;6.892;2023-02-13T06:51:39;12.98;;;6.78;;
44328;SDS011;30039;51.462;6.892;2023-02-13T06:54:25;12.10;;;6.40;;
44328;SDS011;30039;51.462;6.892;2023-02-13T06:57:15;12.20;;;6.13;;
44328;SDS011;30039;51.462;6.892;2023-02-13T07:00:01;11.48;;;6.40;;
44328;SDS011;30039;51.462;6.892;2023-02-13T07:02:50;18.75;;;8.98;;
44328;SDS011;30039;51.462;6.892;2023-02-13T07:05:38;12.80;;;6.80;;
44328;SDS011;30039;51.462;6.892;2023-02-13T07:08:23;11.98;;;6.35;;
44328;SDS011;30039;51.462;6.892;2023-02-13T07:11:21;9.68;;;6.03;;
44328;SDS011;30039;51.462;6.892;2023-02-13T07:14:08;13.20;;;6.57;;
44328;SDS011;30039;51.462;6.892;2023-02-13T07:16:54;12.20;;;6.18;;
44328;SDS011;30039;51.462;6.892;2023-02-13T07:19:39;12.32;;;6.40;;
44328;SDS011;30039;51.462;6.892;2023-02-13T07:22:25;13.98;;;6.85;;
44328;SDS011;30039;51.462;6.892;2023-02-13T07:25:11;12.32;;;7.30;;
44328;SDS011;30039;51.462;6.892;2023-02-13T07:28:03;12.15;;;6.70;;
44328;SDS011;30039;51.462;6.892;2023-02-13T07:30:49;13.00;;;6.68;;
44328;SDS011;30039;51.462;6.892;2023-02-13T07:33:35;14.75;;;6.80;;
44328;SDS011;30039;51.462;6.892;2023-02-13T07:36:21;10.88;;;6.80;;
44328;SDS011;30039;51.462;6.892;2023-02-13T07:39:06;11.82;;;6.25;;
44328;SDS011;30039;51.462;6.892;2023-02-13T07:41:52;12.57;;;6.72;;
44328;SDS011;30039;51.462;6.892;2023-02-13T07:44:38;14.50;;;7.15;;
44328;SDS011;30039;51.462;6.892;2023-02-13T07:47:23;14.05;;;7.28;;
44328;SDS011;30039;51.462;6.892;2023-02-13T07:50:09;12.60;;;7.50;;
44328;SDS011;30039;51.462;6.892;2023-02-13T07:52:55;17.40;;;8.43;;
44328;SDS011;30039;51.462;6.892;2023-02-13T07:55:41;16.15;;;8.73;;
44328;SDS011;30039;51.462;6.892;2023-02-13T07:58:26;15.05;;;8.57;;
44328;SDS011;30039;51.462;6.892;2023-02-13T08:01:13;14.63;;;7.45;;
44328;SDS011;30039;51.462;6.892;2023-02-13T08:04:00;13.27;;;7.25;;
44328;SDS011;30039;51.462;6.892;2023-02-13T08:06:45;15.90;;;7.50;;
44328;SDS011;30039;51.462;6.892;2023-02-13T08:09:31;13.55;;;7.00;;
44328;SDS011;30039;51.462;6.892;2023-02-13T08:12:37;16.80;;;7.63;;
44328;SDS011;30039;51.462;6.892;2023-02-13T08:15:22;12.40;;;7.45;;
44328;SDS011;30039;51.462;6.892;2023-02-13T08:18:08;14.45;;;7.20;;
44328;SDS011;30039;51.462;6.892;2023-02-13T08:20:54;13.15;;;7.20;;
44328;SDS011;30039;51.462;6.892;2023-02-13T08:23:39;12.80;;;7.00;;
44328;SDS011;30039;51.462;6.892;2023-02-13T08:26:25;11.77;;;6.55;;
44328;SDS011;30039;51.462;6.892;2023-02-13T08:29:11;13.05;;;7.32;;
44328;SDS011;30039;51.462;6.892;2023-02-13T08:31:57;11.85;;;6.80;;
44328;SDS011;30039;51.462;6.892;2023-02-13T08:34:43;12.80;;;6.72;;
44328;SDS011;30039;51.462;6.892;2023-02-13T08:37:28;14.63;;;7.15;;
44328;SDS011;30039;51.462;6.892;2023-02-13T08:40:14;12.50;;;7.10;;
44328;SDS011;30039;51.462;6.892;2023-02-13T08:43:03;13.95;;;6.90;;
44328;SDS011;30039;51.462;6.892;2023-02-13T08:45:49;13.40;;;7.07;;
44328;SDS011;30039;51.462;6.892;2023-02-13T08:48:34;15.13;;;7.63;;
44328;SDS011;30039;51.462;6.892;2023-02-13T08:51:20;11.80;;;6.80;;
44328;SDS011;30039;51.462;6.892;2023-02-13T08:54:06;10.50;;;6.40;;
44328;SDS011;30039;51.462;6.892;2023-02-13T08:56:51;12.55;;;7.00;;
44328;SDS011;30039;51.462;6.892;2023-02-13T08:59:37;12.13;;;6.55;;
44328;SDS011;30039;51.462;6.892;2023-02-13T09:02:22;12.25;;;6.55;;
44328;SDS011;30039;51.462;6.892;2023-02-13T09:05:08;14.73;;;6.20;;
44328;SDS011;30039;51.462;6.892;2023-02-13T09:07:53;11.52;;;6.32;;
44328;SDS011;30039;51.462;6.892;2023-02-13T09:10:40;11.60;;;6.18;;
44328;SDS011;30039;51.462;6.892;2023-02-13T09:13:28;9.77;;;5.75;;
44328;SDS011;30039;51.462;6.892;2023-02-13T09:16:14;10.55;;;6.22;;
44328;SDS011;30039;51.462;6.892;2023-02-13T09:19:00;11.38;;;6.15;;
44328;SDS011;30039;51.462;6.892;2023-02-13T09:21:46;9.50;;;5.60;;
44328;SDS011;30039;51.462;6.892;2023-02-13T09:24:32;9.25;;;5.57;;
44328;SDS011;30039;51.462;6.892;2023-02-13T09:27:18;11.98;;;6.05;;
44328;SDS011;30039;51.462;6.892;2023-02-13T09:30:05;11.13;;;6.85;;
44328;SDS011;30039;51.462;6.892;2023-02-13T09:32:51;10.52;;;5.97;;
44328;SDS011;30039;51.462;6.892;2023-02-13T09:35:37;10.95;;;6.05;;
44328;SDS011;30039;51.462;6.892;2023-02-13T09:38:25;10.80;;;6.28;;
44328;SDS011;30039;51.462;6.892;2023-02-13T09:47:26;9.82;;;5.75;;
44328;SDS011;30039;51.462;6.892;2023-02-13T09:53:02;9.27;;;5.68;;
44328;SDS011;30039;51.462;6.892;2023-02-13T09:59:02;11.00;;;5.88;;
44328;SDS011;30039;51.462;6.892;2023-02-13T10:01:50;14.93;;;7.85;;
44328;SDS011;30039;51.462;6.892;2023-02-13T10:07:48;10.63;;;5.50;;
44328;SDS011;30039;51.462;6.892;2023-02-13T10:13:30;10.77;;;5.70;;
44328;SDS011;30039;51.462;6.892;2023-02-13T10:16:31;7.85;;;5.20;;
44328;SDS011;30039;51.462;6.892;2023-02-13T10:19:34;12.18;;;6.60;;
44328;SDS011;30039;51.462;6.892;2023-02-13T10:22:28;10.95;;;6.20;;
44328;SDS011;30039;51.462;6.892;2023-02-13T10:25:15;9.20;;;5.72;;
44328;SDS011;30039;51.462;6.892;2023-02-13T10:28:10;10.60;;;5.68;;
44328;SDS011;30039;51.462;6.892;2023-02-13T10:30:58;12.15;;;7.00;;
44328;SDS011;30039;51.462;6.892;2023-02-13T10:33:47;10.02;;;6.25;;
44328;SDS011;30039;51.462;6.892;2023-02-13T10:36:34;9.27;;;5.30;;
44328;SDS011;30039;51.462;6.892;2023-02-13T10:39:25;10.05;;;4.85;;
44328;SDS011;30039;51.462;6.892;2023-02-13T10:45:19;7.45;;;4.82;;
44328;SDS011;30039;51.462;6.892;2023-02-13T10:51:10;7.95;;;4.88;;
44328;SDS011;30039;51.462;6.892;2023-02-13T10:59:51;9.68;;;5.30;;
44328;SDS011;30039;51.462;6.892;2023-02-13T11:02:41;7.45;;;4.18;;
44328;SDS011;30039;51.462;6.892;2023-02-13T11:05:29;7.43;;;5.05;;
44328;SDS011;30039;51.462;6.892;2023-02-13T11:08:17;7.88;;;4.93;;
44328;SDS011;30039;51.462;6.892;2023-02-13T11:11:03;7.60;;;4.97;;
44328;SDS011;30039;51.462;6.892;2023-02-13T11:13:48;8.18;;;5.00;;
44328;SDS011;30039;51.462;6.892;2023-02-13T11:16:58;7.93;;;4.80;;
44328;SDS011;30039;51.462;6.892;2023-02-13T11:19:49;10.48;;;5.03;;
44328;SDS011;30039;51.462;6.892;2023-02-13T11:22:38;12.05;;;6.80;;
44328;SDS011;30039;51.462;6.892;2023-02-13T11:25:27;8.95;;;4.95;;
44328;SDS011;30039;51.462;6.892;2023-02-13T11:28:15;7.13;;;4.65;;
44328;SDS011;30039;51.462;6.892;2023-02-13T11:31:09;7.07;;;4.32;;
44328;SDS011;30039;51.462;6.892;2023-02-13T11:33:55;7.82;;;5.03;;
44328;SDS011;30039;51.462;6.892;2023-02-13T11:36:41;6.60;;;4.45;;
44328;SDS011;30039;51.462;6.892;2023-02-13T11:39:27;8.30;;;5.03;;
44328;SDS011;30039;51.462;6.892;2023-02-13T11:42:16;7.30;;;4.40;;
44328;SDS011;30039;51.462;6.892;2023-02-13T11:45:05;7.05;;;4.18;;
44328;SDS011;30039;51.462;6.892;2023-02-13T11:47:51;6.55;;;4.43;;
44328;SDS011;30039;51.462;6.892;2023-02-13T11:50:39;5.85;;;4.28;;
44328;SDS011;30039;51.462;6.892;2023-02-13T11:53:26;5.60;;;3.90;;
44328;SDS011;30039;51.462;6.892;2023-02-13T11:56:14;10.63;;;5.15;;
44328;SDS011;30039;51.462;6.892;2023-02-13T11:59:02;8.73;;;4.35;;
44328;SDS011;30039;51.462;6.892;2023-02-13T12:05:16;6.82;;;4.28;;
44328;SDS011;30039;51.462;6.892;2023-02-13T12:08:00;7.57;;;4.72;;
44328;SDS011;30039;51.462;6.892;2023-02-13T12:10:46;8.90;;;4.30;;
44328;SDS011;30039;51.462;6.892;2023-02-13T12:13:33;7.38;;;4.35;;
44328;SDS011;30039;51.462;6.892;2023-02-13T12:16:28;8.00;;;4.20;;
44328;SDS011;30039;51.462;6.892;2023-02-13T12:19:16;7.50;;;4.03;;
44328;SDS011;30039;51.462;6.892;2023-02-13T12:28:09;9.45;;;5.15;;
44328;SDS011;30039;51.462;6.892;2023-02-13T12:31:03;6.53;;;3.88;;
44328;SDS011;30039;51.462;6.892;2023-02-13T12:34:10;6.47;;;3.85;;
44328;SDS011;30039;51.462;6.892;2023-02-13T12:37:15;7.28;;;3.60;;
44328;SDS011;30039;51.462;6.892;2023-02-13T12:40:29;7.05;;;3.83;;
44328;SDS011;30039;51.462;6.892;2023-02-13T12:49:02;5.75;;;3.30;;
44328;SDS011;30039;51.462;6.892;2023-02-13T12:55:23;5.30;;;3.65;;
44328;SDS011;30039;51.462;6.892;2023-02-13T12:58:07;10.25;;;5.07;;
44328;SDS011;30039;51.462;6.892;2023-02-13T13:15:48;9.40;;;3.92;;
44328;SDS011;30039;51.462;6.892;2023-02-13T13:21:50;6.20;;;4.00;;
44328;SDS011;30039;51.462;6.892;2023-02-13T13:27:35;5.65;;;2.90;;
44328;SDS011;30039;51.462;6.892;2023-02-13T13:30:28;5.15;;;2.75;;
44328;SDS011;30039;51.462;6.892;2023-02-13T13:33:20;5.97;;;3.28;;
44328;SDS011;30039;51.462;6.892;2023-02-13T13:41:42;5.80;;;3.00;;
44328;SDS011;30039;51.462;6.892;2023-02-13T13:50:24;6.28;;;3.40;;
44328;SDS011;30039;51.462;6.892;2023-02-13T13:53:11;5.60;;;3.22;;
44328;SDS011;30039;51.462;6.892;2023-02-13T13:55:58;4.10;;;2.72;;
44328;SDS011;30039;51.462;6.892;2023-02-13T13:58:45;7.78;;;3.35;;
44328;SDS011;30039;51.462;6.892;2023-02-13T14:01:31;7.25;;;3.22;;
44328;SDS011;30039;51.462;6.892;2023-02-13T14:07:22;6.45;;;2.88;;
44328;SDS011;30039;51.462;6.892;2023-02-13T14:13:06;4.57;;;2.90;;
44328;SDS011;30039;51.462;6.892;2023-02-13T14:15:52;4.88;;;2.83;;
44328;SDS011;30039;51.462;6.892;2023-02-13T14:18:43;5.60;;;2.80;;
44328;SDS011;30039;51.462;6.892;2023-02-13T14:21:29;14.00;;;6.20;;
44328;SDS011;30039;51.462;6.892;2023-02-13T14:24:17;5.40;;;3.40;;
44328;SDS011;30039;51.462;6.892;2023-02-13T14:27:14;6.38;;;3.15;;
44328;SDS011;30039;51.462;6.892;2023-02-13T14:30:04;5.18;;;3.00;;
44328;SDS011;30039;51.462;6.892;2023-02-13T14:32:50;6.28;;;3.20;;
44328;SDS011;30039;51.462;6.892;2023-02-13T14:35:36;5.30;;;2.90;;
44328;SDS011;30039;51.462;6.892;2023-02-13T14:38:22;5.40;;;3.00;;
44328;SDS011;30039;51.462;6.892;2023-02-13T14:44:37;6.45;;;3.10;;
44328;SDS011;30039;51.462;6.892;2023-02-13T14:47:30;5.78;;;3.00;;
44328;SDS011;30039;51.462;6.892;2023-02-13T14:50:19;5.47;;;2.67;;
44328;SDS011;30039;51.462;6.892;2023-02-13T14:53:07;5.70;;;2.95;;
44328;SDS011;30039;51.462;6.892;2023-02-13T14:55:57;5.40;;;3.10;;
44328;SDS011;30039;51.462;6.892;2023-02-13T14:58:49;4.38;;;3.00;;
44328;SDS011;30039;51.462;6.892;2023-02-13T15:05:16;7.10;;;2.97;;
44328;SDS011;30039;51.462;6.892;2023-02-13T15:07:39;4.70;;;2.92;;
44328;SDS011;30039;51.462;6.892;2023-02-13T15:13:21;7.00;;;3.30;;
44328;SDS011;30039;51.462;6.892;2023-02-13T15:16:09;7.45;;;2.80;;
44328;SDS011;30039;51.462;6.892;2023-02-13T15:18:55;3.55;;;2.55;;
44328;SDS011;30039;51.462;6.892;2023-02-13T15:21:52;4.57;;;2.80;;
44328;SDS011;30039;51.462;6.892;2023-02-13T15:24:43;6.32;;;2.67;;
44328;SDS011;30039;51.462;6.892;2023-02-13T15:27:39;8.30;;;2.60;;
44328;SDS011;30039;51.462;6.892;2023-02-13T15:30:27;4.45;;;2.35;;
44328;SDS011;30039;51.462;6.892;2023-02-13T15:35:59;5.57;;;2.97;;
44328;SDS011;30039;51.462;6.892;2023-02-13T15:38:45;7.35;;;2.72;;
44328;SDS011;30039;51.462;6.892;2023-02-13T15:41:35;4.97;;;2.65;;
44328;SDS011;30039;51.462;6.892;2023-02-13T15:44:23;5.90;;;3.05;;
44328;SDS011;30039;51.462;6.892;2023-02-13T15:47:29;6.22;;;2.78;;
44328;SDS011;30039;51.462;6.892;2023-02-13T15:50:19;5.88;;;2.78;;
44328;SDS011;30039;51.462;6.892;2023-02-13T15:53:09;6.25;;;2.38;;
44328;SDS011;30039;51.462;6.892;2023-02-13T15:55:58;5.45;;;2.53;;
44328;SDS011;30039;51.462;6.892;2023-02-13T15:58:44;7.35;;;2.58;;
44328;SDS011;30039;51.462;6.892;2023-02-13T16:01:30;5.82;;;2.88;;
44328;SDS011;30039;51.462;6.892;2023-02-13T16:04:17;3.80;;;2.40;;
44328;SDS011;30039;51.462;6.892;2023-02-13T16:07:02;4.20;;;2.58;;
44328;SDS011;30039;51.462;6.892;2023-02-13T16:10:12;3.85;;;2.30;;
44328;SDS011;30039;51.462;6.892;2023-02-13T16:13:00;5.10;;;2.38;;
44328;SDS011;30039;51.462;6.892;2023-02-13T16:15:47;7.13;;;3.13;;
44328;SDS011;30039;51.462;6.892;2023-02-13T16:18:33;4.88;;;3.05;;
44328;SDS011;30039;51.462;6.892;2023-02-13T16:21:22;6.93;;;3.85;;
44328;SDS011;30039;51.462;6.892;2023-02-13T16:24:12;6.65;;;3.30;;
44328;SDS011;30039;51.462;6.892;2023-02-13T16:26:59;6.68;;;3.45;;
44328;SDS011;30039;51.462;6.892;2023-02-13T16:29:47;5.60;;;2.72;;
44328;SDS011;30039;51.462;6.892;2023-02-13T16:32:34;7.13;;;4.10;;
44328;SDS011;30039;51.462;6.892;2023-02-13T16:35:27;8.60;;;3.47;;
44328;SDS011;30039;51.462;6.892;2023-02-13T16:38:46;10.63;;;3.83;;
44328;SDS011;30039;51.462;6.892;2023-02-13T16:44:25;9.77;;;5.50;;
44328;SDS011;30039;51.462;6.892;2023-02-13T16:47:18;9.43;;;4.47;;
44328;SDS011;30039;51.462;6.892;2023-02-13T16:50:11;9.93;;;4.82;;
44328;SDS011;30039;51.462;6.892;2023-02-13T16:53:01;12.40;;;4.93;;
44328;SDS011;30039;51.462;6.892;2023-02-13T16:55:54;10.20;;;5.05;;
44328;SDS011;30039;51.462;6.892;2023-02-13T16:58:41;12.68;;;5.22;;
44328;SDS011;30039;51.462;6.892;2023-02-13T17:01:27;9.70;;;4.78;;
44328;SDS011;30039;51.462;6.892;2023-02-13T17:04:20;8.55;;;4.80;;
44328;SDS011;30039;51.462;6.892;2023-02-13T17:07:20;8.10;;;4.55;;
44328;SDS011;30039;51.462;6.892;2023-02-13T17:10:07;11.80;;;4.85;;
44328;SDS011;30039;51.462;6.892;2023-02-13T17:13:01;8.57;;;4.70;;
44328;SDS011;30039;51.462;6.892;2023-02-13T17:15:48;8.02;;;4.65;;
44328;SDS011;30039;51.462;6.892;2023-02-13T17:18:35;8.55;;;4.53;;
44328;SDS011;30039;51.462;6.892;2023-02-13T17:21:22;6.75;;;4.10;;
44328;SDS011;30039;51.462;6.892;2023-02-13T17:24:08;7.32;;;4.38;;
44328;SDS011;30039;51.462;6.892;2023-02-13T17:26:56;8.30;;;4.63;;
44328;SDS011;30039;51.462;6.892;2023-02-13T17:29:42;10.55;;;4.68;;
44328;SDS011;30039;51.462;6.892;2023-02-13T17:32:29;7.13;;;4.70;;
44328;SDS011;30039;51.462;6.892;2023-02-13T17:35:15;11.13;;;4.97;;
44328;SDS011;30039;51.462;6.892;2023-02-13T17:38:01;8.98;;;4.75;;
44328;SDS011;30039;51.462;6.892;2023-02-13T17:40:46;13.00;;;4.47;;
44328;SDS011;30039;51.462;6.892;2023-02-13T17:43:33;11.15;;;4.82;;
44328;SDS011;30039;51.462;6.892;2023-02-13T17:46:18;12.60;;;4.50;;
44328;SDS011;30039;51.462;6.892;2023-02-13T17:49:05;8.43;;;4.35;;
44328;SDS011;30039;51.462;6.892;2023-02-13T17:51:51;9.35;;;5.13;;
44328;SDS011;30039;51.462;6.892;2023-02-13T17:54:36;9.25;;;4.35;;
44328;SDS011;30039;51.462;6.892;2023-02-13T17:57:22;7.40;;;4.40;;
44328;SDS011;30039;51.462;6.892;2023-02-13T18:00:09;8.20;;;4.95;;
44328;SDS011;30039;51.462;6.892;2023-02-13T18:02:55;7.57;;;5.00;;
44328;SDS011;30039;51.462;6.892;2023-02-13T18:05:41;9.13;;;4.40;;
44328;SDS011;30039;51.462;6.892;2023-02-13T18:08:27;13.15;;;4.70;;
44328;SDS011;30039;51.462;6.892;2023-02-13T18:11:15;10.85;;;4.78;;
44328;SDS011;30039;51.462;6.892;2023-02-13T18:14:01;10.18;;;5.63;;
44328;SDS011;30039;51.462;6.892;2023-02-13T18:16:47;10.07;;;5.28;;
44328;SDS011;30039;51.462;6.892;2023-02-13T18:19:33;10.30;;;4.97;;
44328;SDS011;30039;51.462;6.892;2023-02-13T18:22:19;12.30;;;5.75;;
44328;SDS011;30039;51.462;6.892;2023-02-13T18:25:05;11.73;;;5.30;;
44328;SDS011;30039;51.462;6.892;2023-02-13T18:27:52;10.23;;;5.60;;
44328;SDS011;30039;51.462;6.892;2023-02-13T18:30:42;9.60;;;5.63;;
44328;SDS011;30039;51.462;6.892;2023-02-13T18:33:28;10.10;;;5.75;;
44328;SDS011;30039;51.462;6.892;2023-02-13T18:36:13;8.05;;;5.20;;
44328;SDS011;30039;51.462;6.892;2023-02-13T18:38:59;9.18;;;5.25;;
44328;SDS011;30039;51.462;6.892;2023-02-13T18:41:45;8.40;;;5.30;;
44328;SDS011;30039;51.462;6.892;2023-02-13T18:44:31;9.63;;;5.07;;
44328;SDS011;30039;51.462;6.892;2023-02-13T18:47:16;9.15;;;5.30;;
44328;SDS011;30039;51.462;6.892;2023-02-13T18:50:02;9.25;;;5.65;;
44328;SDS011;30039;51.462;6.892;2023-02-13T18:52:48;33.05;;;18.33;;
44328;SDS011;30039;51.462;6.892;2023-02-13T18:55:34;96.97;;;50.83;;
44328;SDS011;30039;51.462;6.892;2023-02-13T18:58:19;69.57;;;37.42;;
44328;SDS011;30039;51.462;6.892;2023-02-13T19:01:08;27.27;;;17.27;;
44328;SDS011;30039;51.462;6.892;2023-02-13T19:03:54;21.52;;;14.02;;
44328;SDS011;30039;51.462;6.892;2023-02-13T19:06:41;14.00;;;7.82;;
44328;SDS011;30039;51.462;6.892;2023-02-13T19:09:27;11.07;;;5.40;;
44328;SDS011;30039;51.462;6.892;2023-02-13T19:12:13;11.60;;;5.93;;
44328;SDS011;30039;51.462;6.892;2023-02-13T19:14:58;9.70;;;5.50;;
44328;SDS011;30039;51.462;6.892;2023-02-13T19:17:44;11.38;;;5.88;;
44328;SDS011;30039;51.462;6.892;2023-02-13T19:20:30;9.25;;;5.22;;